createdAt,value
2023-04-20T00:04:29.458Z,3.53
2023-04-20T00:09:32.255Z,3.48
2023-04-20T00:14:35.104Z,3.34
2023-04-20T00:19:37.343Z,3.42
2023-04-20T00:24:44.966Z,3.45
2023-04-20T00:29:47.640Z,3.59
2023-04-20T00:34:50.326Z,3.59
2023-04-20T00:39:53.039Z,3.58
2023-04-20T00:44:56.061Z,3.64
2023-04-20T00:49:58.999Z,3.52
2023-04-20T00:55:03.297Z,3.49
2023-04-20T01:00:07.520Z,3.49
2023-04-20T01:05:10.715Z,3.36
2023-04-20T01:10:13.358Z,3.39
2023-04-20T01:15:15.757Z,3.39
2023-04-20T01:20:18.054Z,3.41
2023-04-20T01:25:28.872Z,3.41
2023-04-20T01:30:41.272Z,3.35
2023-04-20T01:35:44.583Z,3.39
2023-04-20T01:40:47.295Z,3.21
2023-04-20T01:45:49.701Z,3.34
2023-04-20T01:50:54.066Z,3.34
2023-04-20T01:55:59.102Z,3.33
2023-04-20T02:01:02.375Z,3.33
2023-04-20T02:06:05.571Z,3.32
2023-04-20T02:11:08.699Z,3.23
2023-04-20T02:16:11.751Z,3.24
2023-04-20T02:21:15.844Z,3.16
2023-04-20T02:26:18.603Z,3.25
2023-04-20T02:31:21.317Z,3.14
2023-04-20T02:36:24.464Z,3.00
2023-04-20T02:41:27.211Z,2.88
2023-04-20T02:46:29.693Z,2.84
2023-04-20T02:51:32.786Z,2.88
2023-04-20T02:56:35.278Z,2.94
2023-04-20T03:01:37.897Z,2.90
2023-04-20T03:06:40.498Z,2.91
2023-04-20T03:11:42.928Z,2.91
2023-04-20T03:16:45.360Z,2.93
2023-04-20T03:21:47.799Z,2.96
2023-04-20T03:26:50.958Z,3.01
2023-04-20T03:31:53.698Z,2.95
2023-04-20T03:36:56.392Z,2.95
2023-04-20T03:41:59.224Z,2.94
2023-04-20T03:47:02.226Z,2.86
2023-04-20T03:52:04.787Z,2.90
2023-04-20T03:57:08.354Z,2.87
2023-04-20T04:02:13.286Z,2.81
2023-04-20T04:07:15.893Z,2.71
2023-04-20T04:12:18.908Z,2.66
2023-04-20T04:17:31.442Z,2.66
2023-04-20T04:22:33.931Z,2.76
2023-04-20T04:27:37.645Z,2.83
2023-04-20T04:32:40.089Z,2.77
2023-04-20T04:37:44.130Z,2.76
2023-04-20T04:42:47.541Z,2.73
2023-04-20T04:47:52.909Z,2.74
2023-04-20T04:52:55.825Z,2.74
2023-04-20T04:57:58.231Z,2.74
2023-04-20T05:03:00.763Z,2.82
2023-04-20T05:08:03.172Z,2.71
2023-04-20T05:13:07.532Z,2.67
2023-04-20T05:18:09.832Z,2.59
2023-04-20T05:23:12.276Z,2.64
2023-04-20T05:28:15.415Z,2.78
2023-04-20T05:33:17.761Z,2.81
2023-04-20T05:38:20.525Z,2.88
2023-04-20T05:43:23.743Z,2.84
2023-04-20T05:48:29.553Z,2.84
2023-04-20T05:53:32.975Z,2.72
2023-04-20T05:58:35.510Z,2.92
2023-04-20T06:03:38.061Z,3.07
2023-04-20T06:08:40.752Z,3.04
2023-04-20T06:13:43.891Z,3.20
2023-04-20T06:18:46.664Z,3.02
2023-04-20T06:23:49.225Z,2.96
2023-04-20T06:28:52.902Z,3.06
2023-04-20T06:33:55.407Z,3.00
2023-04-20T06:38:57.697Z,3.16
2023-04-20T06:44:00.079Z,3.27
2023-04-20T06:49:03.014Z,3.25
2023-04-20T06:54:11.973Z,3.43
2023-04-20T06:59:16.356Z,3.47
2023-04-20T07:04:19.089Z,3.58
2023-04-20T07:09:23.097Z,3.53
2023-04-20T07:14:25.917Z,3.43
2023-04-20T07:19:29.187Z,3.34
2023-04-20T07:24:32.365Z,3.11
2023-04-20T07:29:34.709Z,3.31
2023-04-20T07:34:37.088Z,3.30
2023-04-20T07:39:44.895Z,3.36
2023-04-20T07:44:47.336Z,3.43
2023-04-20T07:49:49.809Z,3.31
2023-04-20T07:54:53.787Z,3.41
2023-04-20T07:59:56.361Z,3.42
2023-04-20T08:04:59.846Z,3.48
2023-04-20T08:10:02.878Z,3.71
2023-04-20T08:15:06.977Z,3.73
2023-04-20T08:20:10.538Z,3.81
2023-04-20T08:25:18.162Z,3.95
2023-04-20T08:30:21.631Z,4.00
2023-04-20T08:35:24.443Z,4.16
2023-04-20T08:40:28.254Z,3.99
2023-04-20T08:45:31.442Z,3.97
2023-04-20T08:50:34.035Z,4.07
2023-04-20T08:55:36.411Z,4.37
2023-04-20T09:00:39.024Z,4.25
2023-04-20T09:05:41.291Z,4.32
2023-04-20T09:10:44.389Z,4.41
2023-04-20T09:15:46.967Z,4.60
2023-04-20T09:20:49.301Z,4.47
2023-04-20T09:25:52.971Z,4.26
2023-04-20T09:30:56.191Z,4.22
2023-04-20T09:35:59.317Z,4.16
2023-04-20T09:41:01.890Z,4.23
2023-04-20T09:46:05.131Z,4.34
2023-04-20T09:51:08.545Z,4.46
2023-04-20T09:56:10.996Z,4.65
2023-04-20T10:01:15.576Z,4.69
2023-04-20T10:06:17.985Z,4.83
2023-04-20T10:11:21.422Z,4.79
2023-04-20T10:16:24.880Z,5.09
2023-04-20T10:21:29.141Z,5.45
2023-04-20T10:26:31.570Z,5.95
2023-04-20T10:31:33.998Z,6.05
2023-04-20T10:36:37.330Z,5.81
2023-04-20T10:41:39.647Z,5.36
2023-04-20T10:46:42.152Z,5.35
2023-04-20T10:51:44.472Z,5.16
2023-04-20T10:56:46.880Z,5.46
2023-04-20T11:01:49.768Z,5.65
2023-04-20T11:06:52.190Z,5.88
2023-04-20T11:11:54.508Z,5.80
2023-04-20T11:16:57.757Z,5.88
2023-04-20T11:22:00.137Z,5.71
2023-04-20T11:27:04.520Z,5.78
2023-04-20T11:32:07.932Z,6.05
2023-04-20T11:37:11.846Z,6.44
2023-04-20T11:42:14.129Z,6.57
2023-04-20T11:47:16.357Z,6.57
2023-04-20T11:52:19.241Z,6.62
2023-04-20T11:57:23.880Z,6.51
2023-04-20T12:02:27.659Z,6.22
2023-04-20T12:07:30.015Z,6.16
2023-04-20T12:12:32.318Z,6.93
2023-04-20T12:17:34.882Z,6.70
2023-04-20T12:22:37.274Z,6.73
2023-04-20T12:27:39.713Z,6.95
2023-04-20T12:32:42.045Z,7.07
2023-04-20T12:37:44.748Z,7.12
2023-04-20T12:42:47.034Z,6.58
2023-04-20T12:47:49.404Z,7.03
2023-04-20T12:52:55.992Z,6.55
2023-04-20T12:57:58.269Z,6.46
2023-04-20T13:03:01.855Z,7.20
2023-04-20T13:08:04.247Z,7.52
2023-04-20T13:13:06.657Z,7.32
2023-04-20T13:18:09.707Z,7.22
2023-04-20T13:23:12.949Z,6.83
2023-04-20T13:28:15.603Z,6.83
2023-04-20T13:33:18.673Z,6.57
2023-04-20T13:38:21.818Z,6.68
2023-04-20T13:43:24.903Z,6.41
2023-04-20T13:48:27.305Z,6.61
2023-04-20T13:53:30.652Z,6.81
2023-04-20T13:58:33.073Z,6.79
2023-04-20T14:03:35.617Z,6.65
2023-04-20T14:08:39.817Z,6.88
2023-04-20T14:13:44.215Z,6.72
2023-04-20T14:18:48.573Z,6.73
2023-04-20T14:23:53.461Z,6.98
2023-04-20T14:28:56.318Z,7.30
2023-04-20T14:33:59.509Z,7.35
2023-04-20T14:39:03.887Z,7.28
2023-04-20T14:44:06.374Z,7.17
2023-04-20T14:49:08.705Z,7.23
2023-04-20T14:54:16.868Z,7.39
2023-04-20T14:59:19.481Z,7.34
2023-04-20T15:04:22.055Z,7.34
2023-04-20T15:09:34.801Z,7.32
2023-04-20T15:14:37.537Z,7.67
2023-04-20T15:19:45.731Z,8.02
2023-04-20T15:24:48.004Z,8.89
2023-04-20T15:29:50.912Z,8.85
2023-04-20T15:34:53.861Z,8.83
2023-04-20T15:39:56.561Z,8.65
2023-04-20T15:44:58.819Z,8.83
2023-04-20T15:50:03.315Z,9.11
2023-04-20T15:55:06.082Z,9.11
2023-04-20T16:00:09.721Z,8.97
2023-04-20T16:05:13.016Z,8.92
2023-04-20T16:10:15.406Z,8.92
2023-04-20T16:15:17.744Z,8.98
2023-04-20T16:20:20.213Z,8.96
2023-04-20T16:25:24.191Z,8.75
2023-04-20T16:30:26.642Z,8.84
2023-04-20T16:35:29.368Z,8.70
2023-04-20T16:40:32.016Z,8.72
2023-04-20T16:45:36.041Z,8.71
2023-04-20T16:50:40.352Z,8.64
2023-04-20T16:55:44.363Z,8.72
2023-04-20T17:00:46.822Z,8.52
2023-04-20T17:05:49.547Z,8.32
2023-04-20T17:10:52.049Z,8.38
2023-04-20T17:15:54.937Z,8.20
2023-04-20T17:20:58.362Z,8.02
2023-04-20T17:26:01.455Z,7.86
2023-04-20T17:31:04.589Z,7.82
2023-04-20T17:36:06.996Z,7.73
2023-04-20T17:41:09.391Z,7.66
2023-04-20T17:46:12.110Z,7.73
2023-04-20T17:51:14.506Z,7.68
2023-04-20T17:56:17.310Z,7.50
2023-04-20T18:01:20.225Z,7.50
2023-04-20T18:06:23.894Z,7.46
2023-04-20T18:11:26.270Z,7.39
2023-04-20T18:16:37.575Z,7.24
2023-04-20T18:21:40.214Z,7.19
2023-04-20T18:26:42.512Z,7.07
2023-04-20T18:31:46.519Z,6.98
2023-04-20T18:36:49.355Z,7.05
2023-04-20T18:41:51.682Z,7.01
2023-04-20T18:46:54.045Z,6.98
2023-04-20T18:51:57.253Z,6.91
2023-04-20T18:56:59.529Z,6.95
2023-04-20T19:02:01.934Z,7.01
2023-04-20T19:07:04.319Z,6.94
2023-04-20T19:12:07.043Z,6.95
2023-04-20T19:17:09.338Z,6.82
2023-04-20T19:22:12.051Z,6.87
2023-04-20T19:27:14.363Z,6.87
2023-04-20T19:32:16.705Z,6.80
2023-04-20T19:37:19.073Z,6.74
2023-04-20T19:42:22.776Z,6.80
2023-04-20T19:47:25.122Z,6.72
2023-04-20T19:52:27.829Z,6.74
2023-04-20T19:57:30.175Z,6.68
2023-04-20T20:02:32.727Z,6.67
2023-04-20T20:07:35.478Z,6.60
2023-04-20T20:12:37.856Z,6.55
2023-04-20T20:17:40.420Z,6.63
2023-04-20T20:22:48.113Z,6.50
2023-04-20T20:27:51.023Z,6.40
2023-04-20T20:32:53.458Z,6.46
2023-04-20T20:37:56.218Z,6.40
2023-04-20T20:42:58.939Z,6.40
2023-04-20T20:48:01.768Z,6.34
2023-04-20T20:53:04.535Z,6.37
2023-04-20T20:58:07.744Z,6.37
2023-04-20T21:03:11.210Z,6.47
2023-04-20T21:08:14.019Z,6.46
2023-04-20T21:13:18.889Z,6.46
2023-04-20T21:18:21.972Z,6.54
2023-04-20T21:23:24.286Z,6.57
2023-04-20T21:28:27.442Z,6.51
2023-04-20T21:33:30.713Z,6.51
2023-04-20T21:38:35.214Z,6.54
2023-04-20T21:43:37.932Z,6.54
2023-04-20T21:48:40.549Z,6.58
2023-04-20T21:53:42.866Z,6.50
2023-04-20T21:58:45.265Z,6.57
2023-04-20T22:03:48.236Z,6.57
2023-04-20T22:08:51.249Z,6.60
2023-04-20T22:13:53.866Z,6.59
2023-04-20T22:18:56.966Z,6.65
2023-04-20T22:23:59.304Z,6.66
2023-04-20T22:29:01.569Z,6.62
2023-04-20T22:34:04.143Z,6.53
2023-04-20T22:39:06.494Z,6.62
2023-04-20T22:44:08.969Z,6.71
2023-04-20T22:49:11.427Z,6.71
2023-04-20T22:54:23.726Z,6.73
2023-04-20T22:59:26.444Z,6.70
2023-04-20T23:04:29.783Z,6.67
2023-04-20T23:09:33.012Z,6.57
2023-04-20T23:14:36.990Z,6.65
2023-04-20T23:19:40.367Z,6.70
2023-04-20T23:24:44.478Z,6.59
2023-04-20T23:29:47.040Z,6.71
2023-04-20T23:34:49.486Z,6.78
2023-04-20T23:39:52.102Z,6.76
2023-04-20T23:44:54.428Z,6.71
2023-04-20T23:49:57.064Z,6.69
2023-04-20T23:54:59.396Z,6.79
